sensor_id;sensor_type;location;lat;lon;timestamp;P1;durP1;ratioP1;P2;durP2;ratioP2
39772;SDS011;25451;51.960;6.250;2024-03-08T00:01:54;21.50;;;9.67;;
39772;SDS011;25451;51.960;6.250;2024-03-08T00:04:20;22.87;;;9.73;;
39772;SDS011;25451;51.960;6.250;2024-03-08T00:06:45;23.08;;;9.63;;
39772;SDS011;25451;51.960;6.250;2024-03-08T00:09:11;22.63;;;9.20;;
39772;SDS011;25451;51.960;6.250;2024-03-08T00:11:37;22.33;;;9.88;;
39772;SDS011;25451;51.960;6.250;2024-03-08T00:14:02;26.40;;;9.70;;
39772;SDS011;25451;51.960;6.250;2024-03-08T00:16:31;24.00;;;9.93;;
39772;SDS011;25451;51.960;6.250;2024-03-08T00:18:57;23.53;;;9.00;;
39772;SDS011;25451;51.960;6.250;2024-03-08T00:21:22;24.13;;;8.93;;
39772;SDS011;25451;51.960;6.250;2024-03-08T00:23:48;27.67;;;9.70;;
39772;SDS011;25451;51.960;6.250;2024-03-08T00:26:13;24.87;;;9.73;;
39772;SDS011;25451;51.960;6.250;2024-03-08T00:28:38;23.33;;;9.50;;
39772;SDS011;25451;51.960;6.250;2024-03-08T00:31:03;22.30;;;9.30;;
39772;SDS011;25451;51.960;6.250;2024-03-08T00:33:29;21.23;;;9.57;;
39772;SDS011;25451;51.960;6.250;2024-03-08T00:35:54;20.87;;;9.10;;
39772;SDS011;25451;51.960;6.250;2024-03-08T00:38:19;24.43;;;9.57;;
39772;SDS011;25451;51.960;6.250;2024-03-08T00:40:45;26.25;;;9.20;;
39772;SDS011;25451;51.960;6.250;2024-03-08T00:43:10;23.42;;;9.40;;
39772;SDS011;25451;51.960;6.250;2024-03-08T00:45:35;24.20;;;8.67;;
39772;SDS011;25451;51.960;6.250;2024-03-08T00:48:02;20.42;;;9.18;;
39772;SDS011;25451;51.960;6.250;2024-03-08T00:50:28;21.48;;;9.13;;
39772;SDS011;25451;51.960;6.250;2024-03-08T00:52:53;21.93;;;9.30;;
39772;SDS011;25451;51.960;6.250;2024-03-08T00:55:18;21.83;;;9.20;;
39772;SDS011;25451;51.960;6.250;2024-03-08T00:57:43;20.97;;;9.17;;
39772;SDS011;25451;51.960;6.250;2024-03-08T01:00:09;20.20;;;9.13;;
39772;SDS011;25451;51.960;6.250;2024-03-08T01:02:38;20.20;;;8.80;;
39772;SDS011;25451;51.960;6.250;2024-03-08T01:05:04;19.30;;;8.80;;
39772;SDS011;25451;51.960;6.250;2024-03-08T01:07:33;18.85;;;8.68;;
39772;SDS011;25451;51.960;6.250;2024-03-08T01:09:59;20.30;;;9.20;;
39772;SDS011;25451;51.960;6.250;2024-03-08T01:12:25;20.50;;;9.18;;
39772;SDS011;25451;51.960;6.250;2024-03-08T01:14:51;18.90;;;8.23;;
39772;SDS011;25451;51.960;6.250;2024-03-08T01:17:16;20.13;;;9.67;;
39772;SDS011;25451;51.960;6.250;2024-03-08T01:19:42;21.23;;;9.27;;
39772;SDS011;25451;51.960;6.250;2024-03-08T01:22:09;21.40;;;9.37;;
39772;SDS011;25451;51.960;6.250;2024-03-08T01:24:35;21.02;;;8.90;;
39772;SDS011;25451;51.960;6.250;2024-03-08T01:27:00;21.90;;;9.47;;
39772;SDS011;25451;51.960;6.250;2024-03-08T01:29:26;22.60;;;9.70;;
39772;SDS011;25451;51.960;6.250;2024-03-08T01:31:52;22.10;;;9.60;;
39772;SDS011;25451;51.960;6.250;2024-03-08T01:34:17;21.17;;;10.23;;
39772;SDS011;25451;51.960;6.250;2024-03-08T01:36:42;20.10;;;9.13;;
39772;SDS011;25451;51.960;6.250;2024-03-08T01:39:08;21.13;;;9.40;;
39772;SDS011;25451;51.960;6.250;2024-03-08T01:41:34;21.85;;;9.43;;
39772;SDS011;25451;51.960;6.250;2024-03-08T01:44:00;20.25;;;9.60;;
39772;SDS011;25451;51.960;6.250;2024-03-08T01:46:26;19.70;;;9.13;;
39772;SDS011;25451;51.960;6.250;2024-03-08T01:48:53;19.98;;;9.32;;
39772;SDS011;25451;51.960;6.250;2024-03-08T01:51:19;18.92;;;9.05;;
39772;SDS011;25451;51.960;6.250;2024-03-08T01:53:45;19.43;;;9.17;;
39772;SDS011;25451;51.960;6.250;2024-03-08T01:56:11;19.58;;;9.43;;
39772;SDS011;25451;51.960;6.250;2024-03-08T01:58:38;20.92;;;9.70;;
39772;SDS011;25451;51.960;6.250;2024-03-08T02:01:07;18.65;;;9.55;;
39772;SDS011;25451;51.960;6.250;2024-03-08T02:03:34;21.57;;;9.87;;
39772;SDS011;25451;51.960;6.250;2024-03-08T02:05:59;18.47;;;8.53;;
39772;SDS011;25451;51.960;6.250;2024-03-08T02:08:24;21.77;;;9.55;;
39772;SDS011;25451;51.960;6.250;2024-03-08T02:10:50;20.57;;;9.13;;
39772;SDS011;25451;51.960;6.250;2024-03-08T02:13:15;21.43;;;10.07;;
39772;SDS011;25451;51.960;6.250;2024-03-08T02:18:16;20.17;;;9.13;;
39772;SDS011;25451;51.960;6.250;2024-03-08T02:20:42;20.48;;;9.40;;
39772;SDS011;25451;51.960;6.250;2024-03-08T02:23:07;20.80;;;9.55;;
39772;SDS011;25451;51.960;6.250;2024-03-08T02:25:33;22.30;;;10.73;;
39772;SDS011;25451;51.960;6.250;2024-03-08T02:27:59;22.10;;;9.93;;
39772;SDS011;25451;51.960;6.250;2024-03-08T02:30:24;18.88;;;9.00;;
39772;SDS011;25451;51.960;6.250;2024-03-08T02:32:50;22.38;;;10.05;;
39772;SDS011;25451;51.960;6.250;2024-03-08T02:35:15;20.40;;;9.23;;
39772;SDS011;25451;51.960;6.250;2024-03-08T02:37:41;21.27;;;9.73;;
39772;SDS011;25451;51.960;6.250;2024-03-08T02:40:06;21.33;;;9.70;;
39772;SDS011;25451;51.960;6.250;2024-03-08T02:42:32;22.95;;;10.38;;
39772;SDS011;25451;51.960;6.250;2024-03-08T02:44:57;22.10;;;10.37;;
39772;SDS011;25451;51.960;6.250;2024-03-08T02:47:23;20.15;;;8.90;;
39772;SDS011;25451;51.960;6.250;2024-03-08T02:49:48;23.55;;;10.02;;
39772;SDS011;25451;51.960;6.250;2024-03-08T02:52:15;20.07;;;8.77;;
39772;SDS011;25451;51.960;6.250;2024-03-08T02:54:41;21.42;;;9.57;;
39772;SDS011;25451;51.960;6.250;2024-03-08T02:57:06;22.60;;;9.50;;
39772;SDS011;25451;51.960;6.250;2024-03-08T02:59:32;19.80;;;9.20;;
39772;SDS011;25451;51.960;6.250;2024-03-08T03:01:58;20.87;;;9.60;;
39772;SDS011;25451;51.960;6.250;2024-03-08T03:04:23;20.45;;;9.00;;
39772;SDS011;25451;51.960;6.250;2024-03-08T03:06:48;17.83;;;9.43;;
39772;SDS011;25451;51.960;6.250;2024-03-08T03:09:14;21.80;;;9.63;;
39772;SDS011;25451;51.960;6.250;2024-03-08T03:11:43;19.43;;;9.73;;
39772;SDS011;25451;51.960;6.250;2024-03-08T03:14:09;22.50;;;10.00;;
39772;SDS011;25451;51.960;6.250;2024-03-08T03:16:34;20.20;;;9.93;;
39772;SDS011;25451;51.960;6.250;2024-03-08T03:19:00;19.17;;;9.33;;
39772;SDS011;25451;51.960;6.250;2024-03-08T03:21:28;20.38;;;10.00;;
39772;SDS011;25451;51.960;6.250;2024-03-08T03:23:56;20.13;;;9.35;;
39772;SDS011;25451;51.960;6.250;2024-03-08T03:26:22;19.17;;;9.40;;
39772;SDS011;25451;51.960;6.250;2024-03-08T03:28:47;19.60;;;8.70;;
39772;SDS011;25451;51.960;6.250;2024-03-08T03:31:13;21.90;;;10.25;;
39772;SDS011;25451;51.960;6.250;2024-03-08T03:33:39;21.38;;;9.95;;
39772;SDS011;25451;51.960;6.250;2024-03-08T03:36:05;20.85;;;9.60;;
39772;SDS011;25451;51.960;6.250;2024-03-08T03:38:31;25.03;;;10.10;;
39772;SDS011;25451;51.960;6.250;2024-03-08T03:40:56;21.17;;;9.43;;
39772;SDS011;25451;51.960;6.250;2024-03-08T03:43:29;18.95;;;9.48;;
39772;SDS011;25451;51.960;6.250;2024-03-08T03:45:54;19.73;;;9.53;;
39772;SDS011;25451;51.960;6.250;2024-03-08T03:48:20;20.57;;;9.60;;
39772;SDS011;25451;51.960;6.250;2024-03-08T03:50:46;21.83;;;10.23;;
39772;SDS011;25451;51.960;6.250;2024-03-08T03:53:11;22.03;;;9.70;;
39772;SDS011;25451;51.960;6.250;2024-03-08T03:55:38;19.48;;;9.43;;
39772;SDS011;25451;51.960;6.250;2024-03-08T03:58:03;21.40;;;10.20;;
39772;SDS011;25451;51.960;6.250;2024-03-08T04:00:29;23.90;;;9.37;;
39772;SDS011;25451;51.960;6.250;2024-03-08T04:02:54;21.57;;;10.03;;
39772;SDS011;25451;51.960;6.250;2024-03-08T04:05:21;21.17;;;10.02;;
39772;SDS011;25451;51.960;6.250;2024-03-08T04:07:46;21.57;;;10.07;;
39772;SDS011;25451;51.960;6.250;2024-03-08T04:10:12;20.43;;;10.13;;
39772;SDS011;25451;51.960;6.250;2024-03-08T04:12:37;22.27;;;9.80;;
39772;SDS011;25451;51.960;6.250;2024-03-08T04:15:03;20.92;;;9.98;;
39772;SDS011;25451;51.960;6.250;2024-03-08T04:17:30;24.37;;;10.00;;
39772;SDS011;25451;51.960;6.250;2024-03-08T04:19:55;21.33;;;10.43;;
39772;SDS011;25451;51.960;6.250;2024-03-08T04:22:20;21.10;;;9.63;;
39772;SDS011;25451;51.960;6.250;2024-03-08T04:24:46;23.10;;;10.30;;
39772;SDS011;25451;51.960;6.250;2024-03-08T04:27:11;19.93;;;9.73;;
39772;SDS011;25451;51.960;6.250;2024-03-08T04:29:37;20.70;;;9.45;;
39772;SDS011;25451;51.960;6.250;2024-03-08T04:32:04;21.83;;;9.43;;
39772;SDS011;25451;51.960;6.250;2024-03-08T04:34:30;19.55;;;9.30;;
39772;SDS011;25451;51.960;6.250;2024-03-08T04:36:59;22.90;;;9.95;;
39772;SDS011;25451;51.960;6.250;2024-03-08T04:39:25;19.42;;;9.60;;
39772;SDS011;25451;51.960;6.250;2024-03-08T04:41:53;25.83;;;10.60;;
39772;SDS011;25451;51.960;6.250;2024-03-08T04:44:21;20.65;;;9.75;;
39772;SDS011;25451;51.960;6.250;2024-03-08T04:46:47;20.90;;;9.60;;
39772;SDS011;25451;51.960;6.250;2024-03-08T04:49:13;19.57;;;9.07;;
39772;SDS011;25451;51.960;6.250;2024-03-08T04:51:38;20.20;;;9.23;;
39772;SDS011;25451;51.960;6.250;2024-03-08T04:54:03;24.23;;;10.33;;
39772;SDS011;25451;51.960;6.250;2024-03-08T04:56:29;16.88;;;9.05;;
39772;SDS011;25451;51.960;6.250;2024-03-08T04:58:55;22.63;;;10.10;;
39772;SDS011;25451;51.960;6.250;2024-03-08T05:01:20;22.37;;;10.00;;
39772;SDS011;25451;51.960;6.250;2024-03-08T05:03:45;19.93;;;9.57;;
39772;SDS011;25451;51.960;6.250;2024-03-08T05:06:13;18.70;;;9.13;;
39772;SDS011;25451;51.960;6.250;2024-03-08T05:08:38;21.63;;;9.90;;
39772;SDS011;25451;51.960;6.250;2024-03-08T05:11:04;19.13;;;9.23;;
39772;SDS011;25451;51.960;6.250;2024-03-08T05:13:31;22.67;;;10.00;;
39772;SDS011;25451;51.960;6.250;2024-03-08T05:15:57;22.57;;;10.50;;
39772;SDS011;25451;51.960;6.250;2024-03-08T05:18:23;22.60;;;10.13;;
39772;SDS011;25451;51.960;6.250;2024-03-08T05:20:49;20.17;;;8.97;;
39772;SDS011;25451;51.960;6.250;2024-03-08T05:23:15;27.48;;;11.02;;
39772;SDS011;25451;51.960;6.250;2024-03-08T05:25:40;21.27;;;10.13;;
39772;SDS011;25451;51.960;6.250;2024-03-08T05:28:06;24.42;;;10.50;;
39772;SDS011;25451;51.960;6.250;2024-03-08T05:30:31;22.90;;;10.60;;
39772;SDS011;25451;51.960;6.250;2024-03-08T05:32:57;23.53;;;9.90;;
39772;SDS011;25451;51.960;6.250;2024-03-08T05:35:22;24.37;;;10.97;;
39772;SDS011;25451;51.960;6.250;2024-03-08T05:37:47;24.23;;;9.83;;
39772;SDS011;25451;51.960;6.250;2024-03-08T05:40:13;25.27;;;9.90;;
39772;SDS011;25451;51.960;6.250;2024-03-08T05:42:38;20.43;;;9.83;;
39772;SDS011;25451;51.960;6.250;2024-03-08T05:45:04;24.60;;;10.85;;
39772;SDS011;25451;51.960;6.250;2024-03-08T05:47:31;29.85;;;11.15;;
39772;SDS011;25451;51.960;6.250;2024-03-08T05:49:57;23.60;;;10.68;;
39772;SDS011;25451;51.960;6.250;2024-03-08T05:52:23;23.07;;;10.73;;
39772;SDS011;25451;51.960;6.250;2024-03-08T05:54:48;20.60;;;9.70;;
39772;SDS011;25451;51.960;6.250;2024-03-08T05:57:13;23.63;;;9.77;;
39772;SDS011;25451;51.960;6.250;2024-03-08T05:59:41;22.25;;;9.27;;
39772;SDS011;25451;51.960;6.250;2024-03-08T06:02:07;19.63;;;9.30;;
39772;SDS011;25451;51.960;6.250;2024-03-08T06:04:32;24.13;;;10.10;;
39772;SDS011;25451;51.960;6.250;2024-03-08T06:06:57;21.57;;;10.17;;
39772;SDS011;25451;51.960;6.250;2024-03-08T06:09:23;23.03;;;10.50;;
39772;SDS011;25451;51.960;6.250;2024-03-08T06:11:49;22.85;;;9.70;;
39772;SDS011;25451;51.960;6.250;2024-03-08T06:14:15;20.73;;;9.38;;
39772;SDS011;25451;51.960;6.250;2024-03-08T06:16:43;20.73;;;9.73;;
39772;SDS011;25451;51.960;6.250;2024-03-08T06:19:09;22.70;;;10.68;;
39772;SDS011;25451;51.960;6.250;2024-03-08T06:21:35;23.40;;;10.47;;
39772;SDS011;25451;51.960;6.250;2024-03-08T06:24:00;25.57;;;10.20;;
39772;SDS011;25451;51.960;6.250;2024-03-08T06:26:25;27.08;;;11.10;;
39772;SDS011;25451;51.960;6.250;2024-03-08T06:28:53;20.00;;;9.90;;
39772;SDS011;25451;51.960;6.250;2024-03-08T06:31:19;22.70;;;10.70;;
39772;SDS011;25451;51.960;6.250;2024-03-08T06:33:44;23.90;;;10.60;;
39772;SDS011;25451;51.960;6.250;2024-03-08T06:36:10;22.70;;;10.17;;
39772;SDS011;25451;51.960;6.250;2024-03-08T06:38:36;23.00;;;10.13;;
39772;SDS011;25451;51.960;6.250;2024-03-08T06:41:08;22.10;;;10.63;;
39772;SDS011;25451;51.960;6.250;2024-03-08T06:43:34;22.50;;;10.43;;
39772;SDS011;25451;51.960;6.250;2024-03-08T06:45:59;25.83;;;11.40;;
39772;SDS011;25451;51.960;6.250;2024-03-08T06:48:25;23.43;;;10.80;;
39772;SDS011;25451;51.960;6.250;2024-03-08T06:50:50;25.80;;;11.10;;
39772;SDS011;25451;51.960;6.250;2024-03-08T06:53:15;22.25;;;10.85;;
39772;SDS011;25451;51.960;6.250;2024-03-08T06:55:43;25.37;;;10.87;;
39772;SDS011;25451;51.960;6.250;2024-03-08T06:58:09;23.02;;;11.07;;
39772;SDS011;25451;51.960;6.250;2024-03-08T07:00:35;27.20;;;11.02;;
39772;SDS011;25451;51.960;6.250;2024-03-08T07:03:01;26.17;;;11.27;;
39772;SDS011;25451;51.960;6.250;2024-03-08T07:05:27;26.17;;;11.52;;
39772;SDS011;25451;51.960;6.250;2024-03-08T07:07:53;24.42;;;11.52;;
39772;SDS011;25451;51.960;6.250;2024-03-08T07:10:20;27.60;;;11.43;;
39772;SDS011;25451;51.960;6.250;2024-03-08T07:12:51;26.83;;;11.65;;
39772;SDS011;25451;51.960;6.250;2024-03-08T07:15:18;27.42;;;11.63;;
39772;SDS011;25451;51.960;6.250;2024-03-08T07:17:44;25.05;;;11.05;;
39772;SDS011;25451;51.960;6.250;2024-03-08T07:20:10;28.10;;;11.02;;
39772;SDS011;25451;51.960;6.250;2024-03-08T07:22:37;26.10;;;10.95;;
39772;SDS011;25451;51.960;6.250;2024-03-08T07:25:04;28.83;;;11.73;;
39772;SDS011;25451;51.960;6.250;2024-03-08T07:27:54;25.27;;;11.27;;
39772;SDS011;25451;51.960;6.250;2024-03-08T07:30:20;25.90;;;11.43;;
39772;SDS011;25451;51.960;6.250;2024-03-08T07:33:20;27.38;;;11.40;;
39772;SDS011;25451;51.960;6.250;2024-03-08T07:35:47;29.00;;;10.80;;
39772;SDS011;25451;51.960;6.250;2024-03-08T07:38:14;24.17;;;11.85;;
39772;SDS011;25451;51.960;6.250;2024-03-08T07:40:40;24.50;;;11.47;;
39772;SDS011;25451;51.960;6.250;2024-03-08T07:43:09;26.42;;;11.10;;
39772;SDS011;25451;51.960;6.250;2024-03-08T07:45:40;27.48;;;12.45;;
39772;SDS011;25451;51.960;6.250;2024-03-08T07:48:05;25.80;;;11.57;;
39772;SDS011;25451;51.960;6.250;2024-03-08T07:50:38;26.55;;;11.63;;
39772;SDS011;25451;51.960;6.250;2024-03-08T07:53:04;25.08;;;10.50;;
39772;SDS011;25451;51.960;6.250;2024-03-08T07:55:31;25.08;;;10.93;;
39772;SDS011;25451;51.960;6.250;2024-03-08T07:57:57;27.65;;;11.90;;
39772;SDS011;25451;51.960;6.250;2024-03-08T08:00:22;25.57;;;11.93;;
39772;SDS011;25451;51.960;6.250;2024-03-08T08:02:49;23.77;;;11.60;;
39772;SDS011;25451;51.960;6.250;2024-03-08T08:05:14;28.80;;;11.73;;
39772;SDS011;25451;51.960;6.250;2024-03-08T08:07:44;25.57;;;10.97;;
39772;SDS011;25451;51.960;6.250;2024-03-08T08:10:09;21.55;;;10.98;;
39772;SDS011;25451;51.960;6.250;2024-03-08T08:12:43;26.20;;;11.90;;
39772;SDS011;25451;51.960;6.250;2024-03-08T08:15:08;26.47;;;12.03;;
39772;SDS011;25451;51.960;6.250;2024-03-08T08:17:34;25.08;;;11.65;;
39772;SDS011;25451;51.960;6.250;2024-03-08T08:19:59;24.10;;;11.43;;
39772;SDS011;25451;51.960;6.250;2024-03-08T08:22:25;28.30;;;11.70;;
39772;SDS011;25451;51.960;6.250;2024-03-08T08:24:50;26.37;;;11.73;;
39772;SDS011;25451;51.960;6.250;2024-03-08T08:27:17;28.25;;;12.48;;
39772;SDS011;25451;51.960;6.250;2024-03-08T08:29:42;26.38;;;12.20;;
39772;SDS011;25451;51.960;6.250;2024-03-08T08:32:08;25.23;;;11.43;;
39772;SDS011;25451;51.960;6.250;2024-03-08T08:34:33;25.50;;;11.83;;
39772;SDS011;25451;51.960;6.250;2024-03-08T08:36:58;25.53;;;12.00;;
39772;SDS011;25451;51.960;6.250;2024-03-08T08:39:24;27.43;;;12.70;;
39772;SDS011;25451;51.960;6.250;2024-03-08T08:41:50;24.73;;;11.85;;
39772;SDS011;25451;51.960;6.250;2024-03-08T08:44:16;26.90;;;12.10;;
39772;SDS011;25451;51.960;6.250;2024-03-08T08:46:41;26.00;;;11.87;;
39772;SDS011;25451;51.960;6.250;2024-03-08T08:49:07;25.08;;;11.80;;
39772;SDS011;25451;51.960;6.250;2024-03-08T08:51:35;29.15;;;12.77;;
39772;SDS011;25451;51.960;6.250;2024-03-08T08:54:01;26.83;;;12.53;;
39772;SDS011;25451;51.960;6.250;2024-03-08T08:56:27;25.50;;;12.18;;
39772;SDS011;25451;51.960;6.250;2024-03-08T08:58:53;26.07;;;12.27;;
39772;SDS011;25451;51.960;6.250;2024-03-08T09:01:19;26.83;;;12.45;;
39772;SDS011;25451;51.960;6.250;2024-03-08T09:03:45;27.97;;;12.10;;
39772;SDS011;25451;51.960;6.250;2024-03-08T09:06:12;24.25;;;11.48;;
39772;SDS011;25451;51.960;6.250;2024-03-08T09:08:38;26.95;;;12.50;;
39772;SDS011;25451;51.960;6.250;2024-03-08T09:11:06;29.45;;;12.40;;
39772;SDS011;25451;51.960;6.250;2024-03-08T09:13:32;27.40;;;12.20;;
39772;SDS011;25451;51.960;6.250;2024-03-08T09:16:00;27.05;;;12.77;;
39772;SDS011;25451;51.960;6.250;2024-03-08T09:18:27;26.40;;;12.73;;
39772;SDS011;25451;51.960;6.250;2024-03-08T09:20:53;27.67;;;12.43;;
39772;SDS011;25451;51.960;6.250;2024-03-08T09:23:22;28.03;;;12.27;;
39772;SDS011;25451;51.960;6.250;2024-03-08T09:25:47;27.33;;;12.05;;
39772;SDS011;25451;51.960;6.250;2024-03-08T09:28:12;28.30;;;12.17;;
39772;SDS011;25451;51.960;6.250;2024-03-08T09:30:39;28.45;;;11.95;;
39772;SDS011;25451;51.960;6.250;2024-03-08T09:33:07;24.80;;;11.83;;
39772;SDS011;25451;51.960;6.250;2024-03-08T09:35:33;25.85;;;11.07;;
39772;SDS011;25451;51.960;6.250;2024-03-08T09:37:58;25.23;;;11.73;;
39772;SDS011;25451;51.960;6.250;2024-03-08T09:40:23;23.40;;;11.95;;
39772;SDS011;25451;51.960;6.250;2024-03-08T09:42:50;31.17;;;12.60;;
39772;SDS011;25451;51.960;6.250;2024-03-08T09:45:17;25.65;;;11.98;;
39772;SDS011;25451;51.960;6.250;2024-03-08T09:47:47;23.33;;;11.65;;
39772;SDS011;25451;51.960;6.250;2024-03-08T09:50:13;27.52;;;11.75;;
39772;SDS011;25451;51.960;6.250;2024-03-08T09:52:39;25.27;;;12.10;;
39772;SDS011;25451;51.960;6.250;2024-03-08T09:55:05;25.05;;;11.15;;
39772;SDS011;25451;51.960;6.250;2024-03-08T09:57:35;23.45;;;11.32;;
39772;SDS011;25451;51.960;6.250;2024-03-08T10:00:02;27.70;;;11.63;;
39772;SDS011;25451;51.960;6.250;2024-03-08T10:02:33;22.53;;;11.67;;
39772;SDS011;25451;51.960;6.250;2024-03-08T10:04:59;23.60;;;10.88;;
39772;SDS011;25451;51.960;6.250;2024-03-08T10:07:28;22.77;;;11.05;;
39772;SDS011;25451;51.960;6.250;2024-03-08T10:09:53;22.77;;;11.23;;
39772;SDS011;25451;51.960;6.250;2024-03-08T10:12:19;22.45;;;10.75;;
39772;SDS011;25451;51.960;6.250;2024-03-08T10:14:45;23.95;;;11.30;;
39772;SDS011;25451;51.960;6.250;2024-03-08T10:17:11;21.90;;;11.20;;
39772;SDS011;25451;51.960;6.250;2024-03-08T10:19:37;20.90;;;10.50;;
39772;SDS011;25451;51.960;6.250;2024-03-08T10:22:03;22.48;;;10.82;;
39772;SDS011;25451;51.960;6.250;2024-03-08T10:24:29;22.75;;;11.32;;
39772;SDS011;25451;51.960;6.250;2024-03-08T10:26:59;22.25;;;10.98;;
39772;SDS011;25451;51.960;6.250;2024-03-08T10:29:26;23.85;;;10.98;;
39772;SDS011;25451;51.960;6.250;2024-03-08T10:31:53;22.90;;;11.13;;
39772;SDS011;25451;51.960;6.250;2024-03-08T10:34:20;22.17;;;10.73;;
39772;SDS011;25451;51.960;6.250;2024-03-08T10:36:48;23.23;;;10.55;;
39772;SDS011;25451;51.960;6.250;2024-03-08T10:39:21;22.95;;;10.63;;
39772;SDS011;25451;51.960;6.250;2024-03-08T10:41:53;20.33;;;10.63;;
39772;SDS011;25451;51.960;6.250;2024-03-08T10:49:50;20.63;;;10.27;;
39772;SDS011;25451;51.960;6.250;2024-03-08T10:52:19;22.65;;;11.10;;
39772;SDS011;25451;51.960;6.250;2024-03-08T10:54:44;23.90;;;11.10;;
39772;SDS011;25451;51.960;6.250;2024-03-08T10:57:12;21.98;;;10.40;;
39772;SDS011;25451;51.960;6.250;2024-03-08T10:59:40;20.73;;;10.60;;
39772;SDS011;25451;51.960;6.250;2024-03-08T11:02:08;19.75;;;10.35;;
39772;SDS011;25451;51.960;6.250;2024-03-08T11:04:34;20.98;;;10.20;;
39772;SDS011;25451;51.960;6.250;2024-03-08T11:07:02;18.65;;;9.82;;
39772;SDS011;25451;51.960;6.250;2024-03-08T11:09:31;19.00;;;9.93;;
39772;SDS011;25451;51.960;6.250;2024-03-08T11:14:56;21.08;;;10.02;;
39772;SDS011;25451;51.960;6.250;2024-03-08T11:19:56;20.42;;;10.38;;
39772;SDS011;25451;51.960;6.250;2024-03-08T11:22:22;19.98;;;9.50;;
39772;SDS011;25451;51.960;6.250;2024-03-08T11:24:52;19.73;;;10.17;;
39772;SDS011;25451;51.960;6.250;2024-03-08T11:27:18;19.98;;;9.70;;
39772;SDS011;25451;51.960;6.250;2024-03-08T11:29:45;21.52;;;10.38;;
39772;SDS011;25451;51.960;6.250;2024-03-08T11:32:27;23.05;;;10.18;;
39772;SDS011;25451;51.960;6.250;2024-03-08T11:34:54;22.30;;;10.48;;
39772;SDS011;25451;51.960;6.250;2024-03-08T11:37:20;18.65;;;9.45;;
39772;SDS011;25451;51.960;6.250;2024-03-08T11:39:53;18.75;;;9.68;;
39772;SDS011;25451;51.960;6.250;2024-03-08T11:42:24;19.60;;;10.03;;
39772;SDS011;25451;51.960;6.250;2024-03-08T11:44:51;20.88;;;9.10;;
39772;SDS011;25451;51.960;6.250;2024-03-08T11:47:17;20.88;;;8.70;;
39772;SDS011;25451;51.960;6.250;2024-03-08T11:49:43;19.05;;;8.93;;
39772;SDS011;25451;51.960;6.250;2024-03-08T11:52:13;17.43;;;8.97;;
39772;SDS011;25451;51.960;6.250;2024-03-08T11:54:40;19.80;;;9.20;;
39772;SDS011;25451;51.960;6.250;2024-03-08T11:57:06;21.92;;;9.35;;
39772;SDS011;25451;51.960;6.250;2024-03-08T11:59:31;19.57;;;9.47;;
39772;SDS011;25451;51.960;6.250;2024-03-08T12:02:04;18.05;;;8.48;;
39772;SDS011;25451;51.960;6.250;2024-03-08T12:04:31;17.08;;;8.80;;
39772;SDS011;25451;51.960;6.250;2024-03-08T12:07:00;18.50;;;9.38;;
39772;SDS011;25451;51.960;6.250;2024-03-08T12:09:34;18.30;;;8.73;;
39772;SDS011;25451;51.960;6.250;2024-03-08T12:12:02;18.20;;;8.93;;
39772;SDS011;25451;51.960;6.250;2024-03-08T12:14:29;18.80;;;9.10;;
39772;SDS011;25451;51.960;6.250;2024-03-08T12:16:55;18.92;;;9.20;;
39772;SDS011;25451;51.960;6.250;2024-03-08T12:19:20;18.17;;;9.07;;
39772;SDS011;25451;51.960;6.250;2024-03-08T12:21:46;20.05;;;9.45;;
39772;SDS011;25451;51.960;6.250;2024-03-08T12:24:15;19.20;;;8.97;;
39772;SDS011;25451;51.960;6.250;2024-03-08T12:26:44;19.10;;;9.25;;
39772;SDS011;25451;51.960;6.250;2024-03-08T12:29:14;18.83;;;9.40;;
39772;SDS011;25451;51.960;6.250;2024-03-08T12:31:42;19.00;;;9.02;;
39772;SDS011;25451;51.960;6.250;2024-03-08T12:34:07;20.70;;;9.73;;
39772;SDS011;25451;51.960;6.250;2024-03-08T12:36:34;17.10;;;9.00;;
39772;SDS011;25451;51.960;6.250;2024-03-08T12:39:01;18.85;;;9.07;;
39772;SDS011;25451;51.960;6.250;2024-03-08T12:41:28;20.58;;;9.73;;
39772;SDS011;25451;51.960;6.250;2024-03-08T12:43:54;18.40;;;9.33;;
39772;SDS011;25451;51.960;6.250;2024-03-08T12:46:20;18.92;;;9.55;;
39772;SDS011;25451;51.960;6.250;2024-03-08T12:48:47;20.77;;;9.52;;
39772;SDS011;25451;51.960;6.250;2024-03-08T12:51:13;19.77;;;9.20;;
39772;SDS011;25451;51.960;6.250;2024-03-08T12:53:40;20.23;;;9.52;;
39772;SDS011;25451;51.960;6.250;2024-03-08T12:56:09;19.23;;;9.20;;
39772;SDS011;25451;51.960;6.250;2024-03-08T12:58:35;19.17;;;10.13;;
39772;SDS011;25451;51.960;6.250;2024-03-08T13:01:01;19.10;;;9.47;;
39772;SDS011;25451;51.960;6.250;2024-03-08T13:03:29;18.95;;;9.57;;
39772;SDS011;25451;51.960;6.250;2024-03-08T13:05:55;19.42;;;9.25;;
39772;SDS011;25451;51.960;6.250;2024-03-08T13:08:22;18.45;;;9.50;;
39772;SDS011;25451;51.960;6.250;2024-03-08T13:10:49;16.57;;;8.80;;
39772;SDS011;25451;51.960;6.250;2024-03-08T13:13:16;19.30;;;8.98;;
39772;SDS011;25451;51.960;6.250;2024-03-08T13:15:42;20.48;;;9.75;;
39772;SDS011;25451;51.960;6.250;2024-03-08T13:18:07;16.70;;;8.90;;
39772;SDS011;25451;51.960;6.250;2024-03-08T13:20:34;18.42;;;8.77;;
39772;SDS011;25451;51.960;6.250;2024-03-08T13:23:02;18.27;;;9.23;;
39772;SDS011;25451;51.960;6.250;2024-03-08T13:25:30;18.42;;;9.13;;
39772;SDS011;25451;51.960;6.250;2024-03-08T13:27:58;18.80;;;8.80;;
39772;SDS011;25451;51.960;6.250;2024-03-08T13:30:25;17.50;;;8.63;;
39772;SDS011;25451;51.960;6.250;2024-03-08T13:32:52;19.48;;;8.82;;
39772;SDS011;25451;51.960;6.250;2024-03-08T13:35:18;17.00;;;8.60;;
39772;SDS011;25451;51.960;6.250;2024-03-08T13:37:49;18.65;;;9.00;;
39772;SDS011;25451;51.960;6.250;2024-03-08T13:40:16;20.02;;;9.07;;
39772;SDS011;25451;51.960;6.250;2024-03-08T13:42:43;18.33;;;9.30;;
39772;SDS011;25451;51.960;6.250;2024-03-08T13:45:09;17.42;;;8.68;;
39772;SDS011;25451;51.960;6.250;2024-03-08T13:47:36;17.73;;;8.65;;
39772;SDS011;25451;51.960;6.250;2024-03-08T13:50:02;17.60;;;9.00;;
39772;SDS011;25451;51.960;6.250;2024-03-08T13:52:27;17.10;;;9.07;;
39772;SDS011;25451;51.960;6.250;2024-03-08T13:54:55;16.93;;;8.13;;
39772;SDS011;25451;51.960;6.250;2024-03-08T13:57:21;19.40;;;9.23;;
39772;SDS011;25451;51.960;6.250;2024-03-08T13:59:47;18.40;;;8.52;;
39772;SDS011;25451;51.960;6.250;2024-03-08T14:02:14;19.27;;;9.57;;
39772;SDS011;25451;51.960;6.250;2024-03-08T14:04:39;17.80;;;8.80;;
39772;SDS011;25451;51.960;6.250;2024-03-08T14:07:06;18.17;;;9.18;;
39772;SDS011;25451;51.960;6.250;2024-03-08T14:09:33;17.65;;;8.30;;
39772;SDS011;25451;51.960;6.250;2024-03-08T14:12:02;17.88;;;9.18;;
39772;SDS011;25451;51.960;6.250;2024-03-08T14:14:32;20.17;;;8.60;;
39772;SDS011;25451;51.960;6.250;2024-03-08T14:16:59;17.63;;;8.68;;
39772;SDS011;25451;51.960;6.250;2024-03-08T14:19:24;20.60;;;8.97;;
39772;SDS011;25451;51.960;6.250;2024-03-08T14:21:49;22.85;;;9.60;;
39772;SDS011;25451;51.960;6.250;2024-03-08T14:24:18;17.08;;;8.55;;
39772;SDS011;25451;51.960;6.250;2024-03-08T14:26:43;16.42;;;8.35;;
39772;SDS011;25451;51.960;6.250;2024-03-08T14:29:09;16.40;;;8.20;;
39772;SDS011;25451;51.960;6.250;2024-03-08T14:31:35;19.48;;;9.10;;
39772;SDS011;25451;51.960;6.250;2024-03-08T14:34:01;18.58;;;9.38;;
39772;SDS011;25451;51.960;6.250;2024-03-08T14:36:28;17.45;;;8.60;;
39772;SDS011;25451;51.960;6.250;2024-03-08T14:38:54;17.75;;;8.25;;